Time;durP1;ratioP1;P1;durP2;ratioP2;P2;SDS_P1;SDS_P2;PMS_P1;PMS_P2;Temp;Humidity;BMP_temperature;BMP_pressure;BME280_temperature;BME280_humidity;BME280_pressure;Samples;Min_cycle;Max_cycle;Signal;HPM_P1;HPM_P2
2024/03/07 00:01:14;;;;;;;8.33;5.20;;;9.30;96.60;;;;;;5070682;28;20211;-61
2024/03/07 00:03:41;;;;;;;6.37;5.40;;;9.30;96.70;;;;;;5070848;28;20215;-61
2024/03/07 00:06:08;;;;;;;7.43;5.40;;;9.30;96.80;;;;;;5071367;28;20204;-61
2024/03/07 00:08:36;;;;;;;8.73;5.20;;;9.40;96.90;;;;;;5070285;28;20501;-61
2024/03/07 00:11:03;;;;;;;7.43;5.13;;;9.40;96.90;;;;;;5069236;28;20714;-61
2024/03/07 00:13:30;;;;;;;10.73;5.00;;;9.50;96.90;;;;;;5066510;28;20208;-60
2024/03/07 00:15:57;;;;;;;7.23;5.83;;;9.50;97.00;;;;;;5070200;28;20202;-61
2024/03/07 00:18:24;;;;;;;9.30;5.33;;;9.50;97.00;;;;;;5072219;28;20196;-61
2024/03/07 00:20:52;;;;;;;6.77;5.53;;;9.50;97.00;;;;;;5069954;28;20208;-61
2024/03/07 00:23:19;;;;;;;8.60;5.33;;;9.50;97.10;;;;;;5070032;28;20543;-61
2024/03/07 00:25:49;;;;;;;11.27;5.90;;;9.60;97.10;;;;;;5070486;28;20204;-61
2024/03/07 00:28:17;;;;;;;6.77;4.93;;;9.60;97.20;;;;;;5069891;28;20209;-61
2024/03/07 00:30:45;;;;;;;11.77;5.60;;;9.70;97.20;;;;;;5070729;28;20229;-61
2024/03/07 00:33:13;;;;;;;9.63;6.67;;;9.70;97.30;;;;;;5071864;28;20196;-61
2024/03/07 00:35:40;;;;;;;7.73;4.77;;;9.70;97.40;;;;;;5069333;28;20197;-61
2024/03/07 00:38:08;;;;;;;7.77;5.13;;;9.80;97.60;;;;;;5069516;28;20220;-61
2024/03/07 00:40:35;;;;;;;6.47;5.27;;;9.80;97.60;;;;;;5070047;28;20216;-61
2024/03/07 00:43:03;;;;;;;10.13;6.37;;;9.80;97.70;;;;;;5071939;28;20931;-61
2024/03/07 00:45:31;;;;;;;8.43;6.07;;;9.90;97.80;;;;;;5068980;28;20212;-61
2024/03/07 00:47:58;;;;;;;9.90;6.60;;;9.90;97.90;;;;;;5069551;28;20227;-61
2024/03/07 00:50:27;;;;;;;10.50;6.80;;;9.90;98.20;;;;;;5069755;28;20232;-61
2024/03/07 00:52:54;;;;;;;8.60;6.27;;;10.00;98.30;;;;;;5072009;28;20212;-61
2024/03/07 00:55:22;;;;;;;8.00;6.27;;;10.00;98.10;;;;;;5069803;28;20207;-61
2024/03/07 00:57:49;;;;;;;9.60;6.00;;;10.00;98.20;;;;;;5071242;28;20254;-61
2024/03/07 01:00:21;;;;;;;8.60;6.20;;;10.00;98.30;;;;;;5071340;28;20238;-61
2024/03/07 01:02:48;;;;;;;8.37;5.67;;;10.10;98.40;;;;;;5065641;28;20251;-61
2024/03/07 01:05:17;;;;;;;7.43;5.60;;;10.10;98.40;;;;;;5070878;28;20281;-61
2024/03/07 01:07:47;;;;;;;8.03;4.80;;;10.10;98.40;;;;;;5070385;28;20798;-61
2024/03/07 01:10:15;;;;;;;9.30;4.93;;;10.10;98.50;;;;;;5070612;28;20221;-61
2024/03/07 01:12:43;;;;;;;6.83;5.03;;;10.10;98.50;;;;;;5069369;28;20237;-61
2024/03/07 01:15:11;;;;;;;11.37;5.30;;;10.10;98.40;;;;;;5070049;28;20598;-61
2024/03/07 01:17:39;;;;;;;5.47;4.50;;;10.10;98.40;;;;;;5071268;28;20205;-61
2024/03/07 01:20:07;;;;;;;7.47;4.60;;;10.10;98.40;;;;;;5066458;28;20202;-60
2024/03/07 01:22:34;;;;;;;7.30;4.90;;;10.10;98.40;;;;;;5071525;28;20539;-61
2024/03/07 01:25:02;;;;;;;5.63;4.60;;;10.10;98.40;;;;;;5068511;28;20214;-61
2024/03/07 01:27:30;;;;;;;5.47;3.90;;;10.00;98.30;;;;;;5070173;28;20224;-61
2024/03/07 01:29:57;;;;;;;5.70;4.30;;;10.00;98.30;;;;;;5073517;28;20210;-60
2024/03/07 01:32:24;;;;;;;7.90;4.33;;;9.90;98.30;;;;;;5072090;28;20788;-61
2024/03/07 01:34:51;;;;;;;6.87;4.43;;;9.90;98.40;;;;;;5071693;28;20197;-61
2024/03/07 01:37:18;;;;;;;4.37;3.93;;;9.90;98.40;;;;;;5070497;28;20634;-61
2024/03/07 01:39:46;;;;;;;4.33;3.90;;;9.80;98.50;;;;;;5073862;28;20220;-60
2024/03/07 01:42:14;;;;;;;6.67;4.97;;;9.80;98.40;;;;;;5072958;28;20197;-60
2024/03/07 01:44:41;;;;;;;6.30;4.83;;;9.80;98.50;;;;;;5073903;28;20235;-60
2024/03/07 01:47:08;;;;;;;8.63;4.20;;;9.80;98.40;;;;;;5073793;28;20232;-60
2024/03/07 01:49:36;;;;;;;7.00;5.10;;;9.80;98.40;;;;;;5071721;28;20222;-60
2024/03/07 01:52:04;;;;;;;6.27;4.77;;;9.70;98.40;;;;;;5074928;28;20197;-60
2024/03/07 01:54:33;;;;;;;6.00;4.90;;;9.70;98.50;;;;;;5072764;28;20236;-60
2024/03/07 01:57:01;;;;;;;6.30;5.20;;;9.80;98.50;;;;;;5073814;28;20528;-60
2024/03/07 01:59:30;;;;;;;7.53;6.47;;;9.80;98.60;;;;;;5069364;28;20356;-60
2024/03/07 02:01:57;;;;;;;7.53;6.40;;;9.80;98.60;;;;;;5073322;28;20198;-61
2024/03/07 02:04:24;;;;;;;8.80;6.33;;;9.70;98.60;;;;;;5073811;28;20659;-60
2024/03/07 02:06:53;;;;;;;8.83;5.77;;;9.80;98.70;;;;;;5071674;28;20203;-60
2024/03/07 02:09:21;;;;;;;9.10;6.17;;;9.80;98.70;;;;;;5071503;28;20225;-60
2024/03/07 02:11:51;;;;;;;8.97;5.87;;;9.80;98.80;;;;;;5073682;28;20260;-61
2024/03/07 02:14:18;;;;;;;8.67;6.50;;;9.80;98.90;;;;;;5072848;28;20886;-60
2024/03/07 02:16:45;;;;;;;7.90;6.10;;;9.80;98.90;;;;;;5073853;28;20205;-60
2024/03/07 02:19:17;;;;;;;7.63;5.50;;;9.90;99.00;;;;;;5071857;28;20224;-60
2024/03/07 02:21:45;;;;;;;10.07;6.40;;;9.90;99.00;;;;;;5072888;28;20631;-60
2024/03/07 02:24:12;;;;;;;7.20;5.33;;;9.90;99.00;;;;;;5072177;28;20204;-60
2024/03/07 02:26:39;;;;;;;8.40;5.07;;;9.90;99.10;;;;;;5071939;28;20235;-60
2024/03/07 02:29:06;;;;;;;7.47;5.00;;;9.90;99.10;;;;;;5070691;28;20215;-60
2024/03/07 02:31:37;;;;;;;9.93;5.80;;;10.00;99.20;;;;;;5073928;28;20278;-60
2024/03/07 02:34:04;;;;;;;6.63;5.37;;;10.00;99.20;;;;;;5073718;28;20192;-60
2024/03/07 02:36:31;;;;;;;8.53;6.07;;;10.00;99.20;;;;;;5072557;28;20599;-60
2024/03/07 02:38:59;;;;;;;7.73;5.90;;;10.00;99.30;;;;;;5072118;28;20635;-60
2024/03/07 02:41:27;;;;;;;9.27;5.50;;;10.00;99.30;;;;;;5066627;28;20220;-60
2024/03/07 02:43:54;;;;;;;6.93;5.33;;;10.00;99.30;;;;;;5070082;28;20249;-60
2024/03/07 02:46:21;;;;;;;6.77;5.77;;;10.00;99.20;;;;;;5070138;28;20287;-60
2024/03/07 02:48:48;;;;;;;10.80;5.93;;;10.10;99.20;;;;;;5070899;28;20255;-60
2024/03/07 02:51:15;;;;;;;7.10;5.87;;;10.10;99.20;;;;;;5070818;28;20203;-60
2024/03/07 02:53:42;;;;;;;6.80;5.77;;;10.10;99.20;;;;;;5072406;28;20635;-60
2024/03/07 02:56:10;;;;;;;7.40;6.53;;;10.10;99.30;;;;;;5071487;28;20196;-60
2024/03/07 02:58:37;;;;;;;7.70;6.20;;;10.10;99.30;;;;;;5072162;28;20256;-60
2024/03/07 03:01:05;;;;;;;9.10;6.50;;;10.10;99.40;;;;;;5072648;28;20241;-60
2024/03/07 03:03:32;;;;;;;10.60;6.90;;;10.20;99.40;;;;;;5072807;28;20213;-61
2024/03/07 03:06:00;;;;;;;7.87;6.73;;;10.20;99.40;;;;;;5072585;28;20194;-60
2024/03/07 03:08:28;;;;;;;11.23;8.40;;;10.20;99.40;;;;;;5070996;28;20240;-60
2024/03/07 03:10:56;;;;;;;8.60;7.70;;;10.20;99.40;;;;;;5070413;28;20182;-61
2024/03/07 03:13:25;;;;;;;9.63;7.60;;;10.20;99.30;;;;;;5070963;28;20193;-60
2024/03/07 03:15:52;;;;;;;11.47;7.67;;;10.20;99.30;;;;;;5072441;28;20748;-61
2024/03/07 03:18:19;;;;;;;11.30;9.43;;;10.20;99.40;;;;;;5071338;28;20209;-61
2024/03/07 03:20:48;;;;;;;9.70;8.70;;;10.20;99.40;;;;;;5072865;28;20204;-60
2024/03/07 03:23:15;;;;;;;11.83;8.50;;;10.20;99.40;;;;;;5070848;28;20212;-60
2024/03/07 03:25:50;;;;;;;13.33;7.90;;;10.20;99.40;;;;;;5068548;28;20223;-60
2024/03/07 03:28:18;;;;;;;13.40;8.60;;;10.20;99.50;;;;;;5068296;28;20219;-60
2024/03/07 03:30:48;;;;;;;10.90;7.93;;;10.20;99.50;;;;;;5072703;28;20218;-60
2024/03/07 03:33:16;;;;;;;9.90;8.90;;;10.20;99.50;;;;;;5072700;28;20660;-60
2024/03/07 03:35:44;;;;;;;12.13;8.13;;;10.20;99.50;;;;;;5076961;28;20202;-61
2024/03/07 03:38:13;;;;;;;9.23;8.20;;;10.20;99.80;;;;;;5070325;28;20196;-60
2024/03/07 03:40:41;;;;;;;11.07;7.87;;;10.20;99.60;;;;;;5078530;28;20213;-61
2024/03/07 03:43:09;;;;;;;9.43;8.33;;;10.20;99.60;;;;;;5074101;28;20189;-60
2024/03/07 03:45:37;;;;;;;9.60;8.00;;;10.20;99.50;;;;;;5058189;28;20729;-61
2024/03/07 03:48:06;;;;;;;11.53;8.73;;;10.20;99.60;;;;;;5054971;28;20215;-60
2024/03/07 03:50:35;;;;;;;10.90;8.30;;;10.20;99.60;;;;;;5070003;28;20202;-61
2024/03/07 03:53:03;;;;;;;10.00;8.83;;;10.20;99.60;;;;;;5070628;28;20201;-60
2024/03/07 03:55:32;;;;;;;8.73;7.70;;;10.20;99.40;;;;;;5072562;28;20227;-60
2024/03/07 03:58:00;;;;;;;10.13;8.47;;;10.10;99.40;;;;;;5070999;28;20529;-60
2024/03/07 04:00:28;;;;;;;10.73;8.67;;;10.10;99.50;;;;;;5069243;28;20256;-61
2024/03/07 04:02:55;;;;;;;11.23;7.90;;;10.10;99.50;;;;;;5069967;28;20222;-61
2024/03/07 04:05:24;;;;;;;8.77;7.87;;;10.10;99.50;;;;;;5071128;28;20660;-61
2024/03/07 04:07:54;;;;;;;9.73;8.37;;;10.00;99.40;;;;;;5070817;28;20209;-61
2024/03/07 04:10:22;;;;;;;10.27;8.10;;;10.00;99.50;;;;;;5075807;28;20192;-60
2024/03/07 04:12:49;;;;;;;11.53;8.13;;;9.90;99.50;;;;;;5072302;28;20189;-60
2024/03/07 04:15:18;;;;;;;10.50;8.23;;;9.90;99.50;;;;;;5071127;28;20208;-60
2024/03/07 04:17:46;;;;;;;9.93;8.13;;;9.80;99.50;;;;;;5069503;28;20194;-60
2024/03/07 04:20:17;;;;;;;14.10;8.50;;;9.80;99.50;;;;;;5069623;28;20197;-60
2024/03/07 04:22:46;;;;;;;12.07;8.33;;;9.70;99.40;;;;;;5070773;28;20277;-60
2024/03/07 04:25:14;;;;;;;8.97;8.07;;;9.70;99.30;;;;;;5070522;28;20203;-60
2024/03/07 04:27:42;;;;;;;10.93;8.27;;;9.60;99.40;;;;;;5072027;28;20548;-60
2024/03/07 04:30:10;;;;;;;12.00;8.70;;;9.50;99.40;;;;;;5071321;28;20726;-60
2024/03/07 04:32:38;;;;;;;10.90;8.43;;;9.60;99.50;;;;;;5072427;28;20207;-60
2024/03/07 04:35:10;;;;;;;11.33;8.50;;;9.50;99.60;;;;;;5070537;28;20207;-60
2024/03/07 04:37:40;;;;;;;9.90;7.70;;;9.50;99.70;;;;;;5069984;28;20200;-60
2024/03/07 04:40:18;;;;;;;9.40;8.50;;;9.60;99.80;;;;;;5067845;28;20286;-60
2024/03/07 04:42:49;;;;;;;11.47;9.03;;;9.60;99.90;;;;;;5067396;28;20197;-60
2024/03/07 04:45:18;;;;;;;12.07;8.83;;;9.60;99.90;;;;;;5071685;28;20206;-60
2024/03/07 04:47:49;;;;;;;11.10;8.03;;;9.60;99.90;;;;;;5069814;28;20544;-60
2024/03/07 04:50:17;;;;;;;9.80;7.90;;;9.60;99.90;;;;;;5068524;28;20641;-61
2024/03/07 04:52:46;;;;;;;13.63;9.23;;;9.60;99.90;;;;;;5070535;28;20245;-61
2024/03/07 04:55:15;;;;;;;11.37;9.23;;;9.70;99.90;;;;;;5069739;28;20213;-60
2024/03/07 04:57:43;;;;;;;13.73;10.03;;;9.70;99.90;;;;;;5068331;28;20667;-60
2024/03/07 05:00:13;;;;;;;11.40;8.77;;;9.70;99.90;;;;;;5071928;28;20327;-60
2024/03/07 05:02:44;;;;;;;10.37;8.23;;;9.70;99.90;;;;;;5075007;28;20509;-60
2024/03/07 05:05:12;;;;;;;12.23;9.30;;;9.70;99.90;;;;;;5074843;28;20204;-61
2024/03/07 05:07:41;;;;;;;12.20;9.60;;;9.70;99.90;;;;;;5072336;28;20655;-60
2024/03/07 05:10:09;;;;;;;13.90;9.43;;;9.70;99.90;;;;;;5073192;28;20294;-60
2024/03/07 05:12:36;;;;;;;12.60;8.60;;;9.70;99.90;;;;;;5070927;28;20676;-60
2024/03/07 05:15:05;;;;;;;10.60;8.13;;;9.80;99.90;;;;;;5072909;28;20573;-60
2024/03/07 05:17:34;;;;;;;11.13;9.10;;;9.80;99.90;;;;;;5073181;28;20209;-60
2024/03/07 05:20:03;;;;;;;12.20;9.43;;;9.80;99.90;;;;;;5073511;28;20658;-60
2024/03/07 05:22:30;;;;;;;11.27;9.27;;;9.80;99.90;;;;;;5074833;28;20220;-60
2024/03/07 05:24:58;;;;;;;12.87;9.57;;;9.80;99.90;;;;;;5071039;28;20214;-60
2024/03/07 05:27:27;;;;;;;13.47;10.40;;;9.80;99.90;;;;;;5074918;28;20206;-60
2024/03/07 05:29:55;;;;;;;10.13;8.90;;;9.80;99.90;;;;;;5089497;28;20214;-60
2024/03/07 05:32:26;;;;;;;11.50;9.87;;;9.80;99.90;;;;;;5071468;28;20226;-60
2024/03/07 05:34:54;;;;;;;10.57;9.23;;;9.90;99.90;;;;;;5072363;28;20209;-60
2024/03/07 05:37:22;;;;;;;11.60;9.40;;;9.90;99.90;;;;;;5073545;28;20258;-60
2024/03/07 05:39:50;;;;;;;13.30;9.77;;;9.90;99.90;;;;;;5075057;28;20227;-61
2024/03/07 05:42:17;;;;;;;11.43;8.80;;;9.90;99.90;;;;;;5072187;28;20208;-61
2024/03/07 05:44:45;;;;;;;14.60;10.00;;;9.90;99.90;;;;;;5073206;28;20516;-60
2024/03/07 05:47:16;;;;;;;9.93;8.83;;;9.90;99.90;;;;;;5073580;28;20212;-60
2024/03/07 05:49:43;;;;;;;13.00;9.63;;;9.90;99.90;;;;;;5067496;28;20531;-60
2024/03/07 05:52:11;;;;;;;12.53;9.53;;;9.90;99.90;;;;;;5074139;28;20284;-61
2024/03/07 05:54:38;;;;;;;14.40;10.50;;;9.90;99.90;;;;;;5073581;28;20274;-60
2024/03/07 05:57:08;;;;;;;10.50;9.20;;;9.90;99.90;;;;;;5074826;28;20193;-60
2024/03/07 05:59:35;;;;;;;11.77;9.77;;;9.90;99.90;;;;;;5073774;28;20235;-60
2024/03/07 06:02:02;;;;;;;12.57;9.57;;;9.80;99.90;;;;;;5070993;28;20237;-60
2024/03/07 06:04:31;;;;;;;12.53;10.60;;;9.80;99.90;;;;;;5074029;28;20283;-60
2024/03/07 06:06:59;;;;;;;15.23;9.87;;;9.90;99.90;;;;;;5071482;28;20263;-60
2024/03/07 06:09:26;;;;;;;14.03;10.00;;;9.90;99.90;;;;;;5072304;28;20210;-60
2024/03/07 06:11:54;;;;;;;12.47;10.67;;;9.90;99.90;;;;;;5070228;28;20286;-60
2024/03/07 06:14:22;;;;;;;12.87;10.43;;;9.90;99.90;;;;;;5071515;28;20191;-60
2024/03/07 06:16:51;;;;;;;11.00;9.87;;;9.90;99.90;;;;;;5071031;28;20277;-60
2024/03/07 06:19:19;;;;;;;11.40;9.97;;;9.90;99.90;;;;;;5073937;28;20232;-60
2024/03/07 06:21:46;;;;;;;13.07;10.07;;;9.90;99.90;;;;;;5068392;28;20651;-60
2024/03/07 06:24:15;;;;;;;11.30;10.10;;;10.00;99.90;;;;;;5071414;28;20619;-60
2024/03/07 06:29:17;;;;;;;16.40;11.33;;;10.10;99.90;;;;;;5072392;28;20222;-60
2024/03/07 06:31:49;;;;;;;16.37;10.90;;;10.20;99.90;;;;;;5071439;28;20280;-61
2024/03/07 06:34:17;;;;;;;12.97;9.93;;;10.40;99.90;;;;;;5072113;28;20188;-60
2024/03/07 06:36:45;;;;;;;11.60;9.30;;;10.50;99.90;;;;;;5073720;28;20208;-61
2024/03/07 06:39:12;;;;;;;9.87;8.97;;;10.70;99.90;;;;;;5073045;28;20290;-60
2024/03/07 06:41:39;;;;;;;10.23;8.57;;;10.80;99.60;;;;;;5069826;28;20281;-60
2024/03/07 06:44:09;;;;;;;11.47;9.37;;;10.80;99.50;;;;;;5072668;28;20201;-60
2024/03/07 06:46:37;;;;;;;13.10;10.20;;;10.90;99.60;;;;;;5073276;28;20201;-60
2024/03/07 06:49:10;;;;;;;12.23;10.23;;;11.10;99.40;;;;;;5072331;28;20210;-61
2024/03/07 06:51:37;;;;;;;13.17;9.67;;;11.20;99.30;;;;;;5073232;28;20197;-60
2024/03/07 06:54:05;;;;;;;16.37;11.10;;;11.20;99.10;;;;;;5072236;28;20224;-60
2024/03/07 06:56:33;;;;;;;11.13;9.97;;;11.30;99.10;;;;;;5071816;28;20232;-60
2024/03/07 06:59:04;;;;;;;14.20;9.63;;;11.30;99.00;;;;;;5069785;28;20302;-60
2024/03/07 07:01:33;;;;;;;12.40;8.97;;;11.40;99.00;;;;;;5068525;28;20301;-60
2024/03/07 07:04:03;;;;;;;13.53;9.20;;;11.30;98.80;;;;;;5071934;28;20581;-60
2024/03/07 07:06:31;;;;;;;10.57;8.80;;;11.30;98.70;;;;;;5070208;28;20284;-60
2024/03/07 07:08:58;;;;;;;9.27;8.37;;;11.20;98.60;;;;;;5071427;28;20213;-60
2024/03/07 07:11:27;;;;;;;13.37;9.50;;;11.20;98.60;;;;;;5067607;28;20195;-60
2024/03/07 07:13:59;;;;;;;11.83;8.33;;;11.10;98.60;;;;;;5072473;28;20735;-60
2024/03/07 07:16:27;;;;;;;11.93;7.20;;;11.10;98.60;;;;;;5072498;28;20193;-60
2024/03/07 07:18:55;;;;;;;9.93;7.43;;;11.10;98.60;;;;;;5071632;28;20619;-60
2024/03/07 07:21:22;;;;;;;13.13;8.23;;;11.00;98.60;;;;;;5069923;28;20201;-60
2024/03/07 07:23:49;;;;;;;9.10;8.00;;;11.00;98.60;;;;;;5072281;28;20208;-60
2024/03/07 07:26:16;;;;;;;9.23;7.27;;;10.90;98.50;;;;;;5068508;28;20198;-60
2024/03/07 07:28:44;;;;;;;11.47;7.93;;;10.90;98.50;;;;;;5072586;28;20445;-60
2024/03/07 07:31:11;;;;;;;13.87;8.20;;;10.90;98.40;;;;;;5070528;28;20595;-60
2024/03/07 07:33:38;;;;;;;9.90;8.30;;;10.90;98.60;;;;;;5070971;28;20195;-60
2024/03/07 07:36:05;;;;;;;8.93;7.67;;;10.90;98.30;;;;;;5072056;28;20202;-60
2024/03/07 07:38:32;;;;;;;9.60;7.83;;;10.90;98.30;;;;;;5071373;28;20653;-60
2024/03/07 07:41:01;;;;;;;9.87;7.37;;;10.90;98.30;;;;;;5070950;28;20193;-60
2024/03/07 07:43:28;;;;;;;11.87;8.37;;;10.90;98.30;;;;;;5072537;28;20228;-60
2024/03/07 07:46:08;;;;;;;12.30;8.57;;;10.90;98.30;;;;;;5071223;28;20215;-60
2024/03/07 07:48:36;;;;;;;12.37;8.37;;;11.00;98.40;;;;;;5072191;28;20195;-60
2024/03/07 07:51:05;;;;;;;8.83;7.77;;;11.10;98.40;;;;;;5067958;28;20276;-60
2024/03/07 07:53:32;;;;;;;11.37;8.47;;;11.10;98.30;;;;;;5071058;28;20197;-61
2024/03/07 07:55:59;;;;;;;8.33;6.90;;;11.20;98.30;;;;;;5070395;28;20507;-60
2024/03/07 07:58:26;;;;;;;8.73;7.83;;;11.30;98.30;;;;;;5071494;28;20296;-60
2024/03/07 08:00:54;;;;;;;10.33;7.83;;;11.40;98.30;;;;;;5071866;28;20281;-60
2024/03/07 08:03:22;;;;;;;11.47;7.40;;;11.60;98.40;;;;;;5087999;28;20305;-60
2024/03/07 08:05:49;;;;;;;11.47;8.17;;;11.80;98.10;;;;;;5072076;28;20209;-59
2024/03/07 08:08:18;;;;;;;10.00;7.67;;;12.10;97.60;;;;;;5072527;28;20230;-60
2024/03/07 08:10:45;;;;;;;10.47;7.93;;;12.20;97.10;;;;;;5068554;28;20248;-60
2024/03/07 08:13:13;;;;;;;9.13;7.53;;;12.40;96.90;;;;;;5071555;28;20193;-60
2024/03/07 08:15:41;;;;;;;19.50;9.87;;;12.60;96.60;;;;;;5068674;28;20206;-59
2024/03/07 08:18:09;;;;;;;12.33;8.80;;;12.70;96.20;;;;;;5070651;28;20193;-60
2024/03/07 08:20:38;;;;;;;10.20;7.23;;;12.90;96.20;;;;;;5070837;28;20251;-60
2024/03/07 08:23:07;;;;;;;9.80;7.37;;;13.10;96.00;;;;;;5069926;28;20618;-60
2024/03/07 08:25:34;;;;;;;12.57;7.90;;;13.30;95.40;;;;;;5068578;28;20465;-61
2024/03/07 08:28:01;;;;;;;12.00;8.60;;;13.40;94.50;;;;;;5069087;28;20295;-61
2024/03/07 08:30:29;;;;;;;8.63;7.37;;;13.40;94.30;;;;;;5070431;28;20603;-60
2024/03/07 08:32:58;;;;;;;11.40;7.60;;;13.50;94.50;;;;;;5068662;28;20198;-60
2024/03/07 08:35:26;;;;;;;11.97;6.73;;;13.60;94.40;;;;;;5071270;28;20192;-60
2024/03/07 08:37:55;;;;;;;7.57;6.77;;;13.80;93.80;;;;;;5073236;28;20202;-60
2024/03/07 08:40:30;;;;;;;8.97;7.10;;;13.80;93.60;;;;;;5071440;28;20274;-60
2024/03/07 08:42:59;;;;;;;9.00;6.60;;;14.00;93.30;;;;;;5073020;28;20190;-61
2024/03/07 08:45:28;;;;;;;8.77;6.40;;;14.10;93.20;;;;;;5075553;28;20512;-60
2024/03/07 08:47:56;;;;;;;10.27;5.70;;;14.30;92.30;;;;;;5075330;28;20631;-60
2024/03/07 08:50:26;;;;;;;7.60;6.03;;;14.30;91.90;;;;;;5071616;28;20224;-60
2024/03/07 08:52:54;;;;;;;7.33;5.57;;;14.40;91.90;;;;;;5074131;28;20285;-60
2024/03/07 08:55:25;;;;;;;6.43;4.67;;;14.50;91.70;;;;;;5073100;28;20614;-60
2024/03/07 08:57:53;;;;;;;6.83;4.63;;;14.60;91.60;;;;;;5073231;28;20190;-60
2024/03/07 09:00:24;;;;;;;7.03;5.33;;;14.70;91.20;;;;;;5074109;28;20674;-60
2024/03/07 09:02:58;;;;;;;9.53;5.90;;;14.80;90.50;;;;;;5074548;28;20207;-61
2024/03/07 09:05:29;;;;;;;6.03;5.10;;;14.80;90.10;;;;;;5075164;28;20220;-60
2024/03/07 09:07:58;;;;;;;7.30;5.47;;;14.80;90.50;;;;;;5074283;28;20216;-60
2024/03/07 09:10:29;;;;;;;9.80;6.03;;;14.90;90.50;;;;;;5070472;28;20245;-60
2024/03/07 09:12:58;;;;;;;7.13;4.50;;;15.00;90.10;;;;;;5074607;28;20220;-60
2024/03/07 09:15:26;;;;;;;8.43;4.80;;;15.00;89.60;;;;;;5071795;28;20202;-60
2024/03/07 09:17:54;;;;;;;6.20;3.77;;;15.00;89.30;;;;;;5072449;28;20267;-60
2024/03/07 09:20:21;;;;;;;6.20;4.73;;;15.00;89.50;;;;;;5072056;28;20209;-60
2024/03/07 09:22:50;;;;;;;5.97;4.43;;;15.00;88.80;;;;;;5074360;28;20212;-60
2024/03/07 09:25:18;;;;;;;5.40;4.57;;;15.00;88.40;;;;;;5074763;28;20206;-60
2024/03/07 09:27:47;;;;;;;5.93;3.77;;;15.00;88.70;;;;;;5071636;28;20642;-60
2024/03/07 09:30:24;;;;;;;3.90;3.37;;;15.00;88.30;;;;;;5073735;28;20677;-60
2024/03/07 09:32:51;;;;;;;6.07;3.20;;;15.00;88.80;;;;;;5075348;28;20229;-60
2024/03/07 09:35:19;;;;;;;3.33;2.60;;;15.20;89.30;;;;;;5073526;28;20206;-60
2024/03/07 09:37:46;;;;;;;7.70;2.23;;;15.40;89.40;;;;;;5074229;28;20263;-60
2024/03/07 09:40:14;;;;;;;5.77;2.37;;;15.70;88.60;;;;;;5073929;28;20205;-61
2024/03/07 09:42:47;;;;;;;5.30;3.07;;;15.80;87.30;;;;;;5071832;28;20569;-60
2024/03/07 09:45:19;;;;;;;2.43;2.10;;;16.00;86.30;;;;;;5072741;28;20529;-60
2024/03/07 09:47:51;;;;;;;4.80;2.97;;;16.10;84.10;;;;;;5072836;28;20222;-60
2024/03/07 09:50:21;;;;;;;4.20;2.70;;;16.10;82.20;;;;;;5071650;28;20229;-60
2024/03/07 09:52:52;;;;;;;6.80;3.07;;;16.00;82.90;;;;;;5073828;28;20198;-60
2024/03/07 09:55:24;;;;;;;3.87;2.87;;;16.00;83.80;;;;;;5073264;28;20198;-60
2024/03/07 09:57:55;;;;;;;3.13;2.53;;;16.10;84.50;;;;;;5072265;28;20201;-60
2024/03/07 10:00:29;;;;;;;4.03;2.20;;;16.30;84.30;;;;;;5071152;28;20601;-61
2024/03/07 10:03:01;;;;;;;3.23;2.33;;;16.40;84.30;;;;;;5069387;28;20268;-60
2024/03/07 10:05:31;;;;;;;3.17;2.63;;;16.60;84.10;;;;;;5071537;28;20297;-60
2024/03/07 10:07:59;;;;;;;5.73;2.90;;;16.70;83.70;;;;;;5073997;28;20264;-60
2024/03/07 10:10:26;;;;;;;4.20;3.10;;;16.90;81.20;;;;;;5073098;28;20222;-60
2024/03/07 10:12:54;;;;;;;5.37;2.90;;;16.90;81.00;;;;;;5069263;28;20209;-60
2024/03/07 10:15:22;;;;;;;3.00;2.67;;;17.00;80.80;;;;;;5071904;28;20200;-60
2024/03/07 10:17:50;;;;;;;4.03;2.90;;;17.00;80.30;;;;;;5073704;28;20255;-60
2024/03/07 10:20:22;;;;;;;3.37;2.70;;;17.10;80.20;;;;;;5073992;28;20199;-60
2024/03/07 10:22:50;;;;;;;3.87;2.67;;;17.10;79.70;;;;;;5071375;28;20218;-60
2024/03/07 10:25:19;;;;;;;2.90;2.40;;;17.20;79.00;;;;;;5071509;28;20617;-60
2024/03/07 10:27:50;;;;;;;8.47;3.17;;;17.20;78.40;;;;;;5073261;28;20200;-60
2024/03/07 10:30:23;;;;;;;2.90;2.50;;;17.10;78.50;;;;;;5074057;28;20237;-60
2024/03/07 10:32:59;;;;;;;5.10;2.50;;;17.20;79.20;;;;;;5071801;28;20258;-60
2024/03/07 10:35:28;;;;;;;4.17;2.70;;;17.10;78.40;;;;;;5073028;28;20295;-60
2024/03/07 10:38:06;;;;;;;4.97;3.87;;;17.20;78.00;;;;;;5073327;28;20211;-60
2024/03/07 10:40:37;;;;;;;3.80;2.50;;;17.20;78.30;;;;;;5069603;28;20834;-61
2024/03/07 10:43:09;;;;;;;4.40;3.00;;;17.20;77.40;;;;;;5072536;28;20208;-60
2024/03/07 10:45:48;;;;;;;2.50;2.00;;;17.40;78.50;;;;;;5072470;28;20201;-60
2024/03/07 10:48:18;;;;;;;4.03;2.20;;;17.50;78.80;;;;;;5073437;28;20197;-60
2024/03/07 10:51:14;;;;;;;3.53;2.07;;;17.50;78.90;;;;;;5070578;28;20659;-60
2024/03/07 10:54:14;;;;;;;3.67;2.00;;;17.50;77.20;;;;;;5071631;28;20187;-60
2024/03/07 10:57:05;;;;;;;3.40;2.33;;;17.50;77.60;;;;;;5067526;28;20527;-60
2024/03/07 10:59:38;;;;;;;6.83;2.33;;;17.50;77.60;;;;;;5071867;28;20722;-60
2024/03/07 11:02:27;;;;;;;6.80;2.97;;;17.50;77.90;;;;;;5068956;28;20281;-60
2024/03/07 11:04:55;;;;;;;4.77;2.97;;;17.40;77.40;;;;;;5071689;28;20204;-60
2024/03/07 11:07:24;;;;;;;4.13;2.20;;;17.40;77.70;;;;;;5071036;28;20224;-60
2024/03/07 11:09:55;;;;;;;2.70;2.07;;;17.30;77.30;;;;;;5067545;28;20215;-60
2024/03/07 11:12:27;;;;;;;4.13;2.63;;;17.20;76.90;;;;;;5070357;28;20215;-60
2024/03/07 11:14:56;;;;;;;5.30;2.33;;;17.20;77.40;;;;;;5072687;28;20216;-60
2024/03/07 11:17:24;;;;;;;3.27;1.90;;;17.10;76.80;;;;;;5071733;28;20271;-60
2024/03/07 11:19:51;;;;;;;4.50;2.10;;;17.00;76.40;;;;;;5067567;28;20205;-59
2024/03/07 11:22:32;;;;;;;4.13;2.20;;;16.80;76.60;;;;;;5072230;28;20210;-59
2024/03/07 11:25:10;;;;;;;4.70;2.57;;;16.70;76.60;;;;;;5070447;28;20193;-59
2024/03/07 11:27:38;;;;;;;4.60;1.80;;;16.60;76.70;;;;;;5069711;28;20639;-60
2024/03/07 11:30:10;;;;;;;6.40;1.87;;;16.50;77.00;;;;;;5070301;28;20229;-61
2024/03/07 11:32:38;;;;;;;3.30;1.80;;;16.50;77.40;;;;;;5071003;28;20650;-61
2024/03/07 11:35:14;;;;;;;2.33;1.97;;;16.60;76.80;;;;;;5069614;28;20194;-59
2024/03/07 11:37:47;;;;;;;2.03;1.70;;;16.80;76.40;;;;;;5070466;28;20233;-59
2024/03/07 11:40:24;;;;;;;3.70;2.30;;;17.00;76.40;;;;;;5070524;28;20209;-59
2024/03/07 11:42:54;;;;;;;3.23;2.07;;;17.00;75.80;;;;;;5071730;28;20578;-59
2024/03/07 11:45:33;;;;;;;2.13;1.80;;;17.00;74.90;;;;;;5072129;28;20192;-61
2024/03/07 11:48:06;;;;;;;2.90;1.90;;;16.90;74.80;;;;;;5071876;28;20660;-62
2024/03/07 11:50:35;;;;;;;2.93;2.10;;;16.80;74.60;;;;;;5068919;28;20575;-61
2024/03/07 11:53:11;;;;;;;3.37;2.17;;;16.90;75.00;;;;;;5070297;28;20728;-62
2024/03/07 11:55:47;;;;;;;5.17;2.70;;;16.90;74.30;;;;;;5071401;28;20286;-61
2024/03/07 11:58:21;;;;;;;2.83;1.80;;;16.90;74.00;;;;;;5085875;28;20199;-60
2024/03/07 12:00:51;;;;;;;3.70;1.93;;;17.00;73.00;;;;;;5070985;28;20207;-60
2024/03/07 12:03:25;;;;;;;6.27;2.50;;;17.20;71.60;;;;;;5069671;28;20189;-60
2024/03/07 12:05:53;;;;;;;3.37;2.00;;;17.20;71.30;;;;;;5070046;28;20907;-61
2024/03/07 12:08:23;;;;;;;3.47;2.40;;;17.10;71.80;;;;;;5070276;28;20289;-60
2024/03/07 12:10:56;;;;;;;3.40;2.00;;;17.00;72.10;;;;;;5068514;28;20426;-59
2024/03/07 12:13:26;;;;;;;5.00;2.80;;;16.90;71.60;;;;;;5070411;28;20194;-61
2024/03/07 12:15:55;;;;;;;4.23;2.60;;;16.90;71.60;;;;;;5072503;28;20263;-58
2024/03/07 12:18:24;;;;;;;4.50;2.17;;;16.90;71.00;;;;;;5072011;28;20632;-61
2024/03/07 12:20:55;;;;;;;3.40;2.77;;;16.90;71.30;;;;;;5071886;28;20642;-60
2024/03/07 12:23:25;;;;;;;3.13;2.13;;;16.80;71.20;;;;;;5070944;28;20206;-60
2024/03/07 12:26:03;;;;;;;4.43;2.73;;;16.70;70.20;;;;;;5069706;28;20201;-60
2024/03/07 12:28:33;;;;;;;5.03;2.30;;;16.60;70.40;;;;;;5071710;28;20646;-59
2024/03/07 12:31:03;;;;;;;3.93;2.30;;;16.60;71.30;;;;;;5070699;28;20766;-61
2024/03/07 12:33:33;;;;;;;4.07;2.90;;;16.50;72.30;;;;;;5071699;28;20267;-60
2024/03/07 12:36:09;;;;;;;5.03;2.67;;;16.50;72.40;;;;;;5069907;28;20225;-63
2024/03/07 12:38:40;;;;;;;4.77;2.30;;;16.70;72.10;;;;;;5070798;28;20643;-61
2024/03/07 12:41:16;;;;;;;5.07;3.17;;;16.90;68.90;;;;;;5068428;28;20531;-61
2024/03/07 12:43:47;;;;;;;4.30;2.57;;;17.00;65.40;;;;;;5068320;28;20198;-60
2024/03/07 12:46:17;;;;;;;3.40;2.87;;;17.00;66.30;;;;;;5069674;28;20202;-60
2024/03/07 12:48:49;;;;;;;4.23;2.73;;;17.00;66.30;;;;;;5071112;28;20946;-60
2024/03/07 12:51:17;;;;;;;4.57;3.03;;;16.90;65.30;;;;;;5070909;28;20251;-61
2024/03/07 12:53:47;;;;;;;4.20;2.83;;;17.00;66.00;;;;;;5071847;28;20208;-61
2024/03/07 12:56:17;;;;;;;3.77;3.23;;;17.30;66.80;;;;;;5067116;28;20500;-60
2024/03/07 12:58:45;;;;;;;6.27;3.13;;;17.60;67.10;;;;;;5070276;28;20231;-61